createdAt,value
2023-08-21T00:00:27.765Z,97020.34
2023-08-21T00:05:32.493Z,97017.53
2023-08-21T00:10:35.691Z,97023.06
2023-08-21T00:15:39.979Z,97019.28
2023-08-21T00:20:45.672Z,97014.41
2023-08-21T00:25:49.634Z,97024.19
2023-08-21T00:30:52.889Z,97022.06
2023-08-21T00:35:57.525Z,97018.69
2023-08-21T00:41:00.753Z,97014.41
2023-08-21T00:46:04.346Z,97023.81
2023-08-21T00:51:09.102Z,97012.66
2023-08-21T00:56:12.373Z,97014.25
2023-08-21T01:01:17.475Z,97014.84
2023-08-21T01:06:22.646Z,97009.50
2023-08-21T01:11:31.177Z,97021.19
2023-08-21T01:16:34.969Z,97020.81
2023-08-21T01:21:39.540Z,97019.91
2023-08-21T01:26:44.159Z,97023.19
2023-08-21T01:31:52.092Z,97025.25
2023-08-21T01:36:55.526Z,97027.19
2023-08-21T01:42:01.321Z,97029.25
2023-08-21T01:47:05.584Z,97029.97
2023-08-21T01:52:08.841Z,97033.09
2023-08-21T01:57:13.432Z,97038.41
2023-08-21T02:02:16.693Z,97040.28
2023-08-21T02:07:19.911Z,97041.75
2023-08-21T02:12:24.596Z,97033.94
2023-08-21T02:17:28.571Z,97039.28
2023-08-21T02:22:31.769Z,97035.56
2023-08-21T02:27:36.419Z,97032.13
2023-08-21T02:32:41.540Z,97037.94
2023-08-21T02:37:45.130Z,97031.44
2023-08-21T02:42:49.764Z,97044.22
2023-08-21T02:47:53.022Z,97051.13
2023-08-21T02:52:56.256Z,97040.44
2023-08-21T02:58:00.838Z,97047.06
2023-08-21T03:03:04.250Z,97038.22
2023-08-21T03:08:07.703Z,97048.34
2023-08-21T03:13:12.366Z,97041.72
2023-08-21T03:18:15.604Z,97046.00
2023-08-21T03:23:18.835Z,97045.44
2023-08-21T03:28:23.625Z,97050.53
2023-08-21T03:33:26.987Z,97050.19
2023-08-21T03:38:30.231Z,97051.63
2023-08-21T03:43:34.904Z,97049.13
2023-08-21T03:48:38.171Z,97061.47
2023-08-21T03:53:41.363Z,97056.91
2023-08-21T03:58:46.045Z,97064.78
2023-08-21T04:03:49.236Z,97064.72
2023-08-21T04:08:52.532Z,97067.38
2023-08-21T04:13:57.104Z,97076.31
2023-08-21T04:19:00.761Z,97075.16
2023-08-21T04:24:03.931Z,97081.75
2023-08-21T04:29:08.486Z,97081.56
2023-08-21T04:34:11.729Z,97083.16
2023-08-21T04:39:14.954Z,97095.03
2023-08-21T04:44:20.008Z,97092.00
2023-08-21T04:49:23.266Z,97101.06
2023-08-21T04:54:26.659Z,97103.41
2023-08-21T04:59:31.251Z,97118.88
2023-08-21T05:04:34.643Z,97110.44
2023-08-21T05:09:37.880Z,97113.66
2023-08-21T05:14:42.526Z,97122.69
2023-08-21T05:19:45.781Z,97125.19
2023-08-21T05:24:49.057Z,97134.00
2023-08-21T05:29:53.804Z,97139.22
2023-08-21T05:34:57.001Z,97133.31
2023-08-21T05:40:00.339Z,97134.88
2023-08-21T05:45:05.450Z,97134.41
2023-08-21T05:50:10.179Z,97139.50
2023-08-21T05:55:13.582Z,97141.28
2023-08-21T06:00:19.227Z,97136.97
2023-08-21T06:05:22.429Z,97144.44
2023-08-21T06:10:25.721Z,97142.28
2023-08-21T06:15:30.388Z,97144.88
2023-08-21T06:20:33.745Z,97151.16
2023-08-21T06:25:38.638Z,97148.28
2023-08-21T06:30:43.338Z,97153.41
2023-08-21T06:35:46.770Z,97154.66
2023-08-21T06:40:49.958Z,97161.44
2023-08-21T06:45:54.651Z,97160.22
2023-08-21T06:50:58.091Z,97164.28
2023-08-21T06:56:01.312Z,97155.34
2023-08-21T07:01:06.060Z,97161.16
2023-08-21T07:06:09.461Z,97164.31
2023-08-21T07:11:15.125Z,97160.13
2023-08-21T07:16:20.050Z,97160.91
2023-08-21T07:21:33.128Z,97161.22
2023-08-21T07:26:37.421Z,97158.28
2023-08-21T07:31:42.010Z,97152.16
2023-08-21T07:36:45.500Z,97158.03
2023-08-21T07:41:48.697Z,97161.66
2023-08-21T07:46:53.419Z,97157.66
2023-08-21T07:51:57.118Z,97153.09
2023-08-21T07:57:00.339Z,97159.72
2023-08-21T08:02:05.674Z,97151.19
2023-08-21T08:07:09.019Z,97155.34
2023-08-21T08:12:12.359Z,97145.44
2023-08-21T08:17:17.550Z,97148.16
2023-08-21T08:22:20.905Z,97153.81
2023-08-21T08:27:24.289Z,97144.13
2023-08-21T08:32:29.179Z,97147.03
2023-08-21T08:37:32.537Z,97141.59
2023-08-21T08:42:36.895Z,97136.88
2023-08-21T08:47:43.179Z,97136.53
2023-08-21T08:52:46.703Z,97124.59
2023-08-21T08:57:49.867Z,97129.25
2023-08-21T09:02:54.517Z,97127.00
2023-08-21T09:08:13.759Z,97122.59
2023-08-21T09:13:18.311Z,97119.31
2023-08-21T09:18:23.004Z,97118.19
2023-08-21T09:23:26.246Z,97112.38
2023-08-21T09:28:29.875Z,97108.63
2023-08-21T09:33:35.844Z,97097.94
2023-08-21T09:38:41.922Z,97092.88
2023-08-21T09:43:45.316Z,97096.38
2023-08-21T09:48:50.439Z,97095.34
2023-08-21T09:53:56.013Z,97087.69
2023-08-21T09:58:59.317Z,97082.38
2023-08-21T10:04:04.695Z,97080.34
2023-08-21T10:09:08.816Z,97071.38
2023-08-21T10:14:12.787Z,97075.13
2023-08-21T10:19:19.865Z,97075.25
2023-08-21T10:24:36.711Z,97071.06
2023-08-21T10:29:41.208Z,97059.69
2023-08-21T10:34:54.162Z,97061.22
2023-08-21T10:39:58.287Z,97041.19
2023-08-21T10:45:12.893Z,97048.09
2023-08-21T10:50:17.495Z,97039.44
2023-08-21T10:55:21.089Z,97034.16
2023-08-21T11:00:25.415Z,97034.03
2023-08-21T11:05:30.536Z,97032.56
2023-08-21T11:10:34.500Z,97026.56
2023-08-21T11:15:37.755Z,97016.38
2023-08-21T11:20:44.347Z,97019.06
2023-08-21T11:25:48.399Z,97017.13
2023-08-21T11:30:51.936Z,97014.66
2023-08-21T11:35:58.542Z,97013.72
2023-08-21T11:41:03.541Z,97004.28
2023-08-21T11:46:07.407Z,97007.91
2023-08-21T11:51:12.222Z,96998.19
2023-08-21T11:56:16.738Z,96996.50
2023-08-21T12:01:20.333Z,96980.44
2023-08-21T12:06:26.666Z,96983.72
2023-08-21T12:11:30.113Z,96979.91
2023-08-21T12:16:33.331Z,96975.78
2023-08-21T12:21:38.962Z,96972.53
2023-08-21T12:26:50.390Z,96967.09
2023-08-21T12:31:54.487Z,96958.22
2023-08-21T12:36:59.243Z,96961.34
2023-08-21T12:42:02.748Z,96946.50
2023-08-21T12:47:06.260Z,96949.19
2023-08-21T12:52:11.151Z,96936.59
2023-08-21T12:57:15.380Z,96931.63
2023-08-21T13:02:18.699Z,96936.75
2023-08-21T13:07:23.855Z,96931.59
2023-08-21T13:12:27.897Z,96924.34
2023-08-21T13:17:31.386Z,96930.41
2023-08-21T13:22:48.292Z,96919.03
2023-08-21T13:27:52.075Z,96908.72
2023-08-21T13:32:55.553Z,96907.41
2023-08-21T13:38:01.116Z,96905.28
2023-08-21T13:43:04.658Z,96890.34
2023-08-21T13:48:08.470Z,96895.38
2023-08-21T13:53:16.130Z,96891.47
2023-08-21T13:58:19.617Z,96879.84
2023-08-21T14:03:22.886Z,96872.38
2023-08-21T14:08:27.720Z,96867.38
2023-08-21T14:13:31.095Z,96862.50
2023-08-21T14:18:34.446Z,96856.63
2023-08-21T14:23:40.446Z,96859.75
2023-08-21T14:28:45.792Z,96844.34
2023-08-21T14:33:49.171Z,96849.09
2023-08-21T14:38:54.180Z,96840.44
2023-08-21T14:43:57.670Z,96837.41
2023-08-21T14:49:01.188Z,96830.78
2023-08-21T14:54:06.495Z,96819.06
2023-08-21T14:59:12.058Z,96821.22
2023-08-21T15:04:15.405Z,96822.88
2023-08-21T15:09:20.643Z,96822.41
2023-08-21T15:14:23.899Z,96808.59
2023-08-21T15:19:27.156Z,96810.03
2023-08-21T15:24:31.804Z,96794.41
2023-08-21T15:29:35.058Z,96796.88
2023-08-21T15:34:38.302Z,96798.53
2023-08-21T15:39:43.028Z,96793.81
2023-08-21T15:44:46.313Z,96786.03
2023-08-21T15:49:49.583Z,96790.91
2023-08-21T15:54:54.656Z,96784.41
2023-08-21T15:59:58.036Z,96784.59
2023-08-21T16:05:01.468Z,96776.69
2023-08-21T16:10:07.231Z,96772.69
2023-08-21T16:15:11.076Z,96774.66
2023-08-21T16:20:16.962Z,96782.19
2023-08-21T16:25:22.070Z,96773.03
2023-08-21T16:30:25.528Z,96769.88
2023-08-21T16:35:28.853Z,96772.72
2023-08-21T16:40:34.126Z,96772.03
2023-08-21T16:45:37.521Z,96776.75
2023-08-21T16:50:41.240Z,96766.50
2023-08-21T16:55:46.073Z,96759.91
2023-08-21T17:00:49.751Z,96765.56
2023-08-21T17:05:53.159Z,96767.38
2023-08-21T17:10:57.947Z,96766.28
2023-08-21T17:16:01.398Z,96773.16
2023-08-21T17:21:04.817Z,96762.22
2023-08-21T17:26:09.507Z,96768.88
2023-08-21T17:31:12.814Z,96762.81
2023-08-21T17:36:16.034Z,96761.06
2023-08-21T17:41:20.600Z,96766.00
2023-08-21T17:46:24.236Z,96754.59
2023-08-21T17:51:27.469Z,96757.84
2023-08-21T17:56:32.865Z,96760.66
2023-08-21T18:01:36.183Z,96761.41
2023-08-21T18:06:39.866Z,96761.41
2023-08-21T18:11:44.866Z,96767.63
2023-08-21T18:16:50.386Z,96768.25
2023-08-21T18:21:53.930Z,96766.84
2023-08-21T18:26:58.524Z,96772.06
2023-08-21T18:32:01.832Z,96783.66
2023-08-21T18:37:05.251Z,96784.69
2023-08-21T18:42:10.025Z,96779.94
2023-08-21T18:47:13.371Z,96787.28
2023-08-21T18:52:16.843Z,96791.59
2023-08-21T18:57:21.614Z,96802.16
2023-08-21T19:02:25.456Z,96811.13
2023-08-21T19:07:28.828Z,96816.84
2023-08-21T19:12:33.557Z,96823.00
2023-08-21T19:17:37.385Z,96827.72
2023-08-21T19:22:42.021Z,96832.13
2023-08-21T19:27:47.754Z,96842.31
2023-08-21T19:32:53.277Z,96842.47
2023-08-21T19:37:56.616Z,96842.75
2023-08-21T19:43:01.330Z,96855.69
2023-08-21T19:48:05.013Z,96858.69
2023-08-21T19:53:08.338Z,96860.31
2023-08-21T19:58:13.409Z,96859.00
2023-08-21T20:03:16.778Z,96871.91
2023-08-21T20:08:24.329Z,96865.31
2023-08-21T20:13:29.475Z,96876.13
2023-08-21T20:18:32.688Z,96888.22
2023-08-21T20:23:36.747Z,96890.06
2023-08-21T20:28:41.301Z,96892.06
2023-08-21T20:33:44.469Z,96902.38
2023-08-21T20:38:47.724Z,96906.69
2023-08-21T20:43:52.646Z,96912.81
2023-08-21T20:48:55.970Z,96912.16
2023-08-21T20:53:59.313Z,96909.16
2023-08-21T20:59:04.044Z,96905.44
2023-08-21T21:04:07.290Z,96913.91
2023-08-21T21:09:10.588Z,96907.78
2023-08-21T21:14:15.135Z,96913.94
2023-08-21T21:19:18.430Z,96920.69
2023-08-21T21:24:21.970Z,96917.50
2023-08-21T21:29:26.865Z,96924.75
2023-08-21T21:34:30.410Z,96924.09
2023-08-21T21:39:34.171Z,96919.19
2023-08-21T21:44:38.853Z,96920.03
2023-08-21T21:49:42.132Z,96922.38
2023-08-21T21:54:45.398Z,96927.31
2023-08-21T21:59:50.136Z,96920.13
2023-08-21T22:04:53.752Z,96925.72
2023-08-21T22:09:57.547Z,96930.94
2023-08-21T22:15:02.152Z,96921.38
2023-08-21T22:20:06.750Z,96925.22
2023-08-21T22:25:10.484Z,96932.81
2023-08-21T22:30:15.779Z,96929.41
2023-08-21T22:35:19.315Z,96923.94
2023-08-21T22:40:26.035Z,96917.88
2023-08-21T22:45:30.557Z,96922.97
2023-08-21T22:50:33.785Z,96927.47
2023-08-21T22:55:37.762Z,96929.81
2023-08-21T23:00:42.968Z,96926.22
2023-08-21T23:05:53.738Z,96927.03
2023-08-21T23:10:57.017Z,96924.66
2023-08-21T23:16:02.040Z,96926.97
2023-08-21T23:21:06.343Z,96920.34
2023-08-21T23:26:09.740Z,96918.53
2023-08-21T23:31:14.425Z,96921.84
2023-08-21T23:36:17.659Z,96927.34
2023-08-21T23:41:21.402Z,96915.09
2023-08-21T23:46:26.266Z,96917.22
2023-08-21T23:51:29.658Z,96920.19
2023-08-21T23:56:33.054Z,96918.31
